METAR Data
IDs: Format: Raw Decoded Include TAF

Data at: 2333 UTC 26 Feb 2020

METAR for:KM54 (Lebanon Muni, TN, US)
Text:KM54 262315Z AUTO 31009G21KT 10SM FEW024 BKN038 OVC049 03/M01 A3005 RMK A01
Temperature: 3.0°C ( 37°F)
Dewpoint: -1.0°C ( 30°F) [RH = 75%]
Pressure (altimeter):30.05 inches Hg (1017.7 mb)
Winds:from the NW (310 degrees) at 10 MPH (9 knots; 4.6 m/s) gusting to 24 MPH (21 knots; 10.8 m/s)
Visibility:10 or more sm (16+ km)
Ceiling:3800 feet AGL
Clouds: few clouds at 2400 feet AGL, broken clouds at 3800 feet AGL, overcast cloud deck at 4900 feet AGL
QC Flag:automated observation with no human augmentation